Time;durP1;ratioP1;P1;durP2;ratioP2;P2;SDS_P1;SDS_P2;PMS_P1;PMS_P2;Temp;Humidity;BMP_temperature;BMP_pressure;BME280_temperature;BME280_humidity;BME280_pressure;Samples;Min_cycle;Max_cycle;Signal;HPM_P1;HPM_P2
2022/01/03 00:03:21;;;;;;;0.20;0.00;;;9.10;99.90;;;;;;20879450;28;20703;-78
2022/01/03 00:13:27;;;;;;;0.20;0.10;;;9.00;99.90;;;;;;20879450;28;20189;-78
2022/01/03 00:23:33;;;;;;;0.20;0.00;;;8.90;99.90;;;;;;20881169;28;20313;-78
2022/01/03 00:33:40;;;;;;;0.20;0.00;;;9.00;99.90;;;;;;20911840;28;20202;-79
2022/01/03 00:43:44;;;;;;;0.20;0.00;;;8.90;99.90;;;;;;20910947;28;20649;-79
2022/01/03 00:53:51;;;;;;;0.20;0.10;;;8.80;99.90;;;;;;20909072;28;20204;-75
2022/01/03 01:03:56;;;;;;;0.20;0.00;;;8.60;99.90;;;;;;20876446;28;20271;-75
2022/01/03 01:14:02;;;;;;;0.20;0.00;;;8.30;99.90;;;;;;20914267;28;20284;-76
2022/01/03 01:24:06;;;;;;;0.30;0.30;;;8.40;99.90;;;;;;20911614;28;20221;-75
2022/01/03 01:34:15;;;;;;;0.20;0.00;;;8.30;99.90;;;;;;20910687;28;20622;-73
2022/01/03 01:44:19;;;;;;;0.20;0.00;;;8.30;99.90;;;;;;20910680;28;20236;-74
2022/01/03 01:54:30;;;;;;;0.20;0.10;;;8.20;99.90;;;;;;20910115;28;20197;-76
2022/01/03 02:04:43;;;;;;;0.20;0.03;;;8.40;99.90;;;;;;20884424;28;20236;-75
2022/01/03 02:14:53;;;;;;;0.20;0.10;;;8.10;99.90;;;;;;20908249;28;20193;-75
2022/01/03 02:24:58;;;;;;;0.20;0.00;;;8.10;99.90;;;;;;20906646;28;20747;-74
2022/01/03 02:35:01;;;;;;;0.20;0.00;;;8.10;99.90;;;;;;20906152;28;20272;-75
2022/01/03 02:45:08;;;;;;;0.20;0.00;;;7.90;99.90;;;;;;20904446;28;20224;-77
2022/01/03 02:55:13;;;;;;;0.20;0.10;;;8.10;99.90;;;;;;20905001;28;20205;-75
2022/01/03 03:05:18;;;;;;;1.37;1.27;;;8.00;99.90;;;;;;20904419;28;20229;-77
2022/01/03 03:15:22;;;;;;;0.20;0.00;;;7.70;99.90;;;;;;20903441;28;20221;-75
2022/01/03 03:25:29;;;;;;;0.20;0.00;;;7.80;99.90;;;;;;20901834;28;20264;-74
2022/01/03 03:35:33;;;;;;;0.20;0.10;;;7.80;99.90;;;;;;20901726;28;20201;-76
2022/01/03 03:45:38;;;;;;;0.20;0.00;;;7.50;99.90;;;;;;20901489;28;20710;-76
2022/01/03 03:55:42;;;;;;;0.20;0.00;;;7.50;99.90;;;;;;20900560;28;20236;-75
2022/01/03 04:05:47;;;;;;;0.20;0.00;;;7.40;99.90;;;;;;20900290;28;20311;-77
2022/01/03 04:15:50;;;;;;;0.20;0.10;;;7.30;99.90;;;;;;20899306;28;20200;-75
2022/01/03 04:25:57;;;;;;;0.20;0.00;;;7.60;99.90;;;;;;20898880;28;20222;-77
2022/01/03 04:36:01;;;;;;;0.20;0.10;;;7.50;99.90;;;;;;20898214;28;20201;-76
2022/01/03 04:46:06;;;;;;;0.20;0.00;;;7.60;99.90;;;;;;20898758;28;20769;-74
2022/01/03 04:56:12;;;;;;;0.20;0.00;;;7.50;99.90;;;;;;20897910;28;20587;-75
2022/01/03 05:06:18;;;;;;;0.20;0.00;;;7.20;99.90;;;;;;20897301;28;20349;-75
2022/01/03 05:16:21;;;;;;;0.20;0.00;;;7.10;99.90;;;;;;20910576;28;20651;-77
2022/01/03 05:26:26;;;;;;;0.20;0.10;;;7.10;99.90;;;;;;20912239;28;20260;-76
2022/01/03 05:36:30;;;;;;;0.20;0.00;;;7.40;99.90;;;;;;20910956;28;20276;-76
2022/01/03 05:46:36;;;;;;;0.20;0.00;;;7.40;99.90;;;;;;20907793;28;20686;-78
2022/01/03 05:56:40;;;;;;;0.20;0.00;;;7.40;99.90;;;;;;20825492;28;20225;-78
2022/01/03 06:06:56;;;;;;;0.20;0.00;;;7.30;99.90;;;;;;20897874;28;20324;-77
2022/01/03 06:17:00;;;;;;;0.20;0.00;;;7.30;99.90;;;;;;20907644;28;20200;-77
2022/01/03 06:27:06;;;;;;;0.20;0.10;;;7.50;99.90;;;;;;20904231;28;20311;-76
2022/01/03 06:37:10;;;;;;;0.20;0.00;;;7.50;99.90;;;;;;20905455;28;20208;-77
2022/01/03 06:47:15;;;;;;;0.20;0.00;;;7.50;99.90;;;;;;20878981;28;20321;-78
2022/01/03 06:57:18;;;;;;;0.20;0.07;;;7.60;99.90;;;;;;20822303;28;20520;-77
2022/01/03 07:07:23;;;;;;;0.20;0.10;;;7.60;99.90;;;;;;20894703;28;20235;-78
2022/01/03 07:27:49;;;;;;;0.20;0.00;;;7.50;99.90;;;;;;20898496;28;20235;-83
2022/01/03 07:37:53;;;;;;;0.20;0.10;;;7.50;99.90;;;;;;20900123;28;20607;-79
2022/01/03 07:47:58;;;;;;;0.20;0.10;;;7.70;99.90;;;;;;20903122;28;20308;-77
2022/01/03 07:58:03;;;;;;;0.20;0.10;;;7.70;99.90;;;;;;20895903;28;20611;-75
2022/01/03 08:08:09;;;;;;;0.20;0.00;;;7.90;99.90;;;;;;20881422;28;20268;-81
2022/01/03 08:18:13;;;;;;;0.20;0.03;;;8.20;99.90;;;;;;20895997;28;20289;-77
2022/01/03 08:28:18;;;;;;;0.20;0.00;;;8.60;99.90;;;;;;20826506;28;20706;-80
2022/01/03 08:38:21;;;;;;;0.20;0.00;;;9.10;99.90;;;;;;20867131;28;20292;-77
2022/01/03 08:48:28;;;;;;;0.20;0.10;;;9.60;99.90;;;;;;20906871;28;20233;-75
2022/01/03 08:58:32;;;;;;;0.20;0.00;;;10.10;99.90;;;;;;20895801;28;20552;-77
2022/01/03 09:08:37;;;;;;;0.20;0.00;;;10.70;99.90;;;;;;20893801;28;20237;-77
2022/01/03 09:18:41;;;;;;;0.20;0.00;;;11.30;99.90;;;;;;20912512;28;20221;-76
2022/01/03 09:28:49;;;;;;;0.20;0.10;;;11.70;99.90;;;;;;20912349;28;20511;-76
2022/01/03 09:38:53;;;;;;;0.20;0.10;;;11.70;99.90;;;;;;20909690;28;20201;-73
2022/01/03 09:48:59;;;;;;;0.30;0.30;;;11.80;99.90;;;;;;20893955;28;20924;-77
2022/01/03 09:59:05;;;;;;;0.20;0.00;;;12.00;99.90;;;;;;20853556;28;20296;-76
2022/01/03 10:09:10;;;;;;;0.20;0.10;;;12.50;99.90;;;;;;20881481;28;20653;-76
2022/01/03 10:19:14;;;;;;;2.83;2.67;;;12.90;99.90;;;;;;20892740;28;20289;-75
2022/01/03 10:29:21;;;;;;;0.20;0.10;;;13.20;99.90;;;;;;20849211;28;20710;-79
2022/01/03 10:39:27;;;;;;;0.20;0.10;;;13.30;99.90;;;;;;20882614;28;20289;-78
2022/01/03 10:49:34;;;;;;;0.20;0.00;;;14.30;99.90;;;;;;20860599;28;20282;-78
2022/01/03 10:59:38;;;;;;;1.13;1.03;;;14.70;99.90;;;;;;20870762;28;20544;-77
2022/01/03 11:20:05;;;;;;;1.03;1.03;;;15.40;99.90;;;;;;20842342;28;20205;-77
2022/01/03 11:30:12;;;;;;;0.20;0.10;;;16.00;99.90;;;;;;20838332;28;20240;-78
2022/01/03 11:40:17;;;;;;;0.20;0.00;;;16.80;99.90;;;;;;20867492;28;20638;-77
2022/01/03 11:50:22;;;;;;;0.20;0.00;;;16.90;99.90;;;;;;20839654;28;20736;-78
2022/01/03 12:10:49;;;;;;;0.20;0.00;;;16.80;99.90;;;;;;20883379;28;20318;-74
2022/01/03 12:20:53;;;;;;;0.40;0.40;;;17.00;99.90;;;;;;20893514;28;20231;-76
2022/01/03 12:30:58;;;;;;;0.20;0.00;;;15.80;99.90;;;;;;20902586;28;20231;-78
2022/01/03 12:41:04;;;;;;;0.20;0.10;;;15.80;99.90;;;;;;20879764;28;20217;-81
2022/01/03 12:51:15;;;;;;;0.20;0.00;;;14.80;99.90;;;;;;20831786;28;20767;-79
2022/01/03 13:01:28;;;;;;;0.20;0.10;;;15.00;99.90;;;;;;20883328;28;20535;-80
2022/01/03 13:11:35;;;;;;;0.20;0.00;;;16.50;99.90;;;;;;20884240;28;20653;-79
2022/01/03 13:21:41;;;;;;;0.20;0.00;;;15.90;99.90;;;;;;20885489;28;20208;-79
2022/01/03 13:31:46;;;;;;;0.20;0.00;;;15.90;99.90;;;;;;20899021;28;20252;-81
2022/01/03 13:41:52;;;;;;;0.20;0.00;;;15.40;99.90;;;;;;20899970;28;20205;-82
2022/01/03 13:51:58;;;;;;;0.20;0.10;;;15.50;99.90;;;;;;20883043;28;20993;-79
2022/01/03 14:02:06;;;;;;;0.20;0.10;;;15.70;99.90;;;;;;20880508;28;20194;-78
2022/01/03 14:12:14;;;;;;;0.30;0.30;;;16.30;99.90;;;;;;20876336;28;20245;-76
2022/01/03 14:22:19;;;;;;;0.20;0.10;;;16.90;99.90;;;;;;20893384;28;20685;-78
2022/01/03 14:32:25;;;;;;;0.20;0.10;;;15.90;99.90;;;;;;20874807;28;20233;-80
2022/01/03 14:42:31;;;;;;;0.20;0.00;;;16.90;99.90;;;;;;20897610;28;20612;-80
2022/01/03 14:52:41;;;;;;;0.20;0.00;;;18.70;99.90;;;;;;20905646;28;20588;-80
2022/01/03 15:02:47;;;;;;;0.20;0.00;;;17.40;99.90;;;;;;20906514;28;20240;-75
2022/01/03 15:12:54;;;;;;;0.20;0.00;;;17.00;99.90;;;;;;20902903;28;20237;-79
2022/01/03 15:23:01;;;;;;;0.20;0.00;;;17.70;99.90;;;;;;20902735;28;20201;-81
2022/01/03 15:33:06;;;;;;;0.20;0.10;;;16.80;99.90;;;;;;20846036;28;20241;-82
2022/01/03 15:43:10;;;;;;;0.20;0.00;;;16.30;99.90;;;;;;20786544;28;20217;-82
2022/01/03 15:53:16;;;;;;;0.20;0.00;;;16.00;99.90;;;;;;20802977;28;20673;-77
2022/01/03 16:03:21;;;;;;;0.20;0.00;;;15.60;99.90;;;;;;20876012;28;20617;-79
2022/01/03 16:13:28;;;;;;;0.20;0.10;;;14.90;99.90;;;;;;20866182;28;20270;-80
2022/01/03 16:23:31;;;;;;;0.20;0.00;;;14.30;99.90;;;;;;20883882;28;20201;-78
2022/01/03 16:33:36;;;;;;;0.20;0.00;;;14.10;99.90;;;;;;20885295;28;20316;-79
2022/01/03 16:43:41;;;;;;;0.20;0.00;;;13.90;99.90;;;;;;20883605;28;20212;-79
2022/01/03 16:53:48;;;;;;;0.20;0.00;;;13.80;99.90;;;;;;20881541;28;20229;-80
2022/01/03 17:03:51;;;;;;;1.80;1.70;;;13.70;99.90;;;;;;20883577;28;20270;-80
2022/01/03 17:13:57;;;;;;;0.20;0.10;;;13.20;99.90;;;;;;20881828;28;20239;-81
2022/01/03 17:24:01;;;;;;;0.20;0.20;;;12.90;99.90;;;;;;20862011;28;20594;-87
2022/01/03 17:34:06;;;;;;;0.20;0.10;;;12.80;99.90;;;;;;20893006;28;20225;-82
2022/01/03 17:44:12;;;;;;;0.20;0.00;;;12.70;99.90;;;;;;20895458;28;20534;-77
2022/01/03 17:54:20;;;;;;;0.20;0.00;;;12.40;99.90;;;;;;20909054;28;20312;-80
2022/01/03 18:04:26;;;;;;;0.20;0.00;;;12.30;99.90;;;;;;20902138;28;20273;-80
2022/01/03 18:14:33;;;;;;;0.20;0.10;;;12.20;99.90;;;;;;20880681;28;20232;-71
2022/01/03 18:24:39;;;;;;;0.20;0.10;;;11.90;99.90;;;;;;20897345;28;20229;-72
2022/01/03 18:34:43;;;;;;;0.20;0.10;;;11.90;99.90;;;;;;20897351;28;20615;-70
2022/01/03 18:45:17;;;;;;;0.20;0.10;;;11.80;99.90;;;;;;20893986;28;20280;-70
2022/01/03 18:55:37;;;;;;;0.20;0.10;;;11.80;99.90;;;;;;20891034;28;20292;-70
2022/01/03 19:16:50;;;;;;;0.20;0.00;;;11.70;99.90;;;;;;22153183;23;20227;-69
2022/01/03 19:26:54;;;;;;;0.20;0.10;;;11.60;99.90;;;;;;20570329;28;20267;-71
2022/01/03 19:47:20;;;;;;;0.20;0.10;;;11.40;99.90;;;;;;20551720;28;20239;-71
2022/01/03 19:57:26;;;;;;;0.20;0.00;;;11.50;99.90;;;;;;20566781;28;20207;-69
2022/01/03 20:07:30;;;;;;;0.27;0.23;;;11.40;99.90;;;;;;20550372;28;20282;-69
2022/01/03 20:17:36;;;;;;;0.20;0.10;;;11.40;99.90;;;;;;20567752;28;20256;-70
2022/01/03 20:27:40;;;;;;;0.20;0.00;;;11.70;99.90;;;;;;20550666;28;20235;-68
2022/01/03 20:37:45;;;;;;;0.20;0.07;;;11.70;99.90;;;;;;20564088;28;20192;-68
2022/01/03 20:47:49;;;;;;;0.20;0.00;;;12.90;99.90;;;;;;20582138;28;20587;-68
2022/01/03 20:57:54;;;;;;;0.20;0.10;;;13.30;99.90;;;;;;20563198;28;20208;-69
2022/01/03 21:07:57;;;;;;;0.20;0.10;;;12.40;99.90;;;;;;20581238;28;20224;-69
2022/01/03 21:18:03;;;;;;;0.20;0.10;;;13.00;99.90;;;;;;20579412;28;20236;-68
2022/01/03 21:28:07;;;;;;;0.20;0.00;;;13.80;99.90;;;;;;20579398;28;20243;-68
2022/01/03 21:38:12;;;;;;;0.20;0.10;;;13.80;99.90;;;;;;20576223;28;20239;-69
2022/01/03 21:48:16;;;;;;;0.20;0.00;;;13.70;99.90;;;;;;20577223;28;20315;-68
2022/01/03 21:58:21;;;;;;;0.20;0.10;;;13.80;99.90;;;;;;20576665;28;20290;-68
2022/01/03 22:08:24;;;;;;;0.20;0.00;;;13.60;99.90;;;;;;20577080;28;20311;-67
2022/01/03 22:18:29;;;;;;;0.20;0.10;;;13.70;99.90;;;;;;20575368;28;20228;-67
2022/01/03 22:28:33;;;;;;;0.20;0.00;;;13.80;99.90;;;;;;20575684;28;20259;-69
2022/01/03 22:38:42;;;;;;;0.20;0.10;;;13.60;99.90;;;;;;20573385;28;20255;-69
2022/01/03 22:48:46;;;;;;;0.20;0.00;;;13.60;99.90;;;;;;20574773;28;20240;-68
2022/01/03 22:58:51;;;;;;;0.20;0.00;;;13.30;99.90;;;;;;20573316;28;20273;-68
2022/01/03 23:08:55;;;;;;;0.20;0.00;;;13.00;99.90;;;;;;20566055;28;20246;-69
2022/01/03 23:19:00;;;;;;;0.20;0.10;;;12.90;99.90;;;;;;20575357;28;20278;-70
2022/01/03 23:29:04;;;;;;;0.20;0.00;;;12.80;99.90;;;;;;20576668;28;20311;-68
2022/01/03 23:39:09;;;;;;;0.20;0.10;;;13.60;99.90;;;;;;20574626;28;20279;-69
2022/01/03 23:49:13;;;;;;;0.20;0.10;;;13.10;99.90;;;;;;20572518;28;20247;-69
2022/01/03 23:59:18;;;;;;;0.20;0.10;;;12.70;99.90;;;;;;20576460;28;20207;-69
